Silver Cloud — 2HYG4 — position and weather

sailwx.info

Track history (hours):
 
Tides and Currents Weather Stations Pressure Air Temp Water Temp Dewpoint Dewpoint Depression Visibility Wind Speed Wind Dir Waves Ship Positions

Silver Cloud

Last reported at 2017-Sep-25 12:32 UTC. Time now 2017-Nov-18 03:03 UTC.
Position N 28°54' W 013°39'.
Warning: this ship's position is 53 days out of date.

Length 12 m; draft 2 m.

Type: Sailing vessel. MMSI: 235107615.

Date/timePositionNaut miles runAvg speedWind from/ knotsBaromVisibWave heightAir tempDewpointWater temp
2017-Sep-25 12:32N 28°54' W 013°39'1 6.1
2017-Sep-25 12:24N 28°54' W 013°38'2 6.2
2017-Sep-25 12:00N 28°55' W 013°35'4 6.1
2017-Sep-25 11:21N 28°57' W 013°31'3 6.5
2017-Sep-25 10:57N 28°58' W 013°29'  
2017-Sep-21 12:24N 38°23' W 009°40'7 6.3
2017-Sep-21 11:19N 38°29' W 009°36'3 6.1
2017-Sep-21 10:48N 38°31' W 009°34'2 6.0
2017-Sep-21 10:28N 38°33' W 009°33'3 5.8
2017-Sep-21 10:00N 38°35' W 009°31'4 7.2
2017-Sep-21 09:30N 38°38' W 009°28'3 5.5
2017-Sep-21 09:00N 38°40' W 009°26'2 1.8
2017-Sep-21 08:08N 38°42' W 009°25'0 0.7
2017-Sep-21 07:48N 38°41' W 009°25'0 0.0
2017-Sep-21 03:57N 38°41' W 009°25'0 0.0
2017-Sep-21 01:48N 38°41' W 009°25'0 0.0
2017-Sep-20 22:48N 38°41' W 009°25'0 0.0
2017-Sep-20 22:09N 38°41' W 009°25'0 0.0
2017-Sep-20 21:48N 38°41' W 009°25'0 0.0
2017-Sep-20 21:27N 38°41' W 009°25'0 0.0
2017-Sep-20 20:57N 38°41' W 009°25'0 0.0
2017-Sep-20 17:48N 38°41' W 009°25'0 0.0
2017-Sep-20 14:33N 38°41' W 009°25'0 0.0
2017-Sep-20 10:48N 38°41' W 009°25'0 0.0
2017-Sep-20 09:51N 38°41' W 009°25'0 0.0
2017-Sep-20 09:03N 38°41' W 009°25'0 0.0
2017-Sep-20 07:48N 38°41' W 009°25'0 0.0
2017-Sep-20 06:48N 38°41' W 009°25'0 0.0
2017-Sep-20 06:18N 38°41' W 009°25'0 0.0
2017-Sep-20 05:48N 38°41' W 009°25'0 0.0
2017-Sep-20 05:21N 38°41' W 009°25'0 0.0
2017-Sep-20 02:57N 38°41' W 009°25'0 0.0
2017-Sep-20 01:21N 38°41' W 009°25'0 0.0
2017-Sep-20 00:06N 38°41' W 009°25'0 0.0
2017-Sep-19 23:48N 38°41' W 009°25'0 0.0
2017-Sep-19 19:48N 38°41' W 009°25'0 0.0
2017-Sep-19 19:15N 38°41' W 009°25'0 0.0
2017-Sep-19 18:51N 38°41' W 009°25'0 0.0
2017-Sep-19 11:48N 38°41' W 009°25'0 0.0
2017-Sep-19 09:50N 38°41' W 009°25'0 0.2
2017-Sep-19 08:38N 38°42' W 009°25'0 1.0
2017-Sep-19 08:29N 38°42' W 009°25'3 5.1
2017-Sep-19 07:59N 38°41' W 009°28'3 6.8
2017-Sep-19 07:30N 38°42' W 009°32'3 6.6
2017-Sep-19 07:00N 38°45' W 009°34'3 6.8
2017-Sep-19 06:30N 38°48' W 009°36'3 6.7
2017-Sep-19 06:00N 38°51' W 009°37'3 6.9
2017-Sep-19 05:30N 38°55' W 009°37'4 7.0
2017-Sep-19 05:00N 38°58' W 009°38'3 6.7
2017-Sep-19 04:30N 39°02' W 009°39'3 6.5
2017-Sep-19 04:00N 39°05' W 009°39'3 6.5
2017-Sep-19 03:30N 39°08' W 009°39'3 6.4
2017-Sep-19 03:00N 39°11' W 009°39'3 6.3
2017-Sep-19 02:28N 39°15' W 009°39'3 6.0
2017-Sep-19 01:59N 39°18' W 009°39'  
Track history (hours):
 
Tides and Currents Weather Stations Pressure Air Temp Water Temp Dewpoint Dewpoint Depression Visibility Wind Speed Wind Dir Waves Ship Positions

Silver Cloud

Last reported at 2017-Sep-25 12:32 UTC. Time now 2017-Nov-18 03:03 UTC.
Position N 28°54' W 013°39'.
Warning: this ship's position is 53 days out of date.

Length 12 m; draft 2 m.

Type: Sailing vessel. MMSI: 235107615.

Date/timePositionNaut miles runAvg speedWind from/ knotsBaromVisibWave heightAir tempDewpointWater temp
2017-Sep-25 12:32N 28°54' W 013°39'1 6.1
2017-Sep-25 12:24N 28°54' W 013°38'2 6.2
2017-Sep-25 12:00N 28°55' W 013°35'4 6.1
2017-Sep-25 11:21N 28°57' W 013°31'3 6.5
2017-Sep-25 10:57N 28°58' W 013°29'  
2017-Sep-21 12:24N 38°23' W 009°40'7 6.3
2017-Sep-21 11:19N 38°29' W 009°36'3 6.1
2017-Sep-21 10:48N 38°31' W 009°34'2 6.0
2017-Sep-21 10:28N 38°33' W 009°33'3 5.8
2017-Sep-21 10:00N 38°35' W 009°31'4 7.2
2017-Sep-21 09:30N 38°38' W 009°28'3 5.5
2017-Sep-21 09:00N 38°40' W 009°26'2 1.8
2017-Sep-21 08:08N 38°42' W 009°25'0 0.7
2017-Sep-21 07:48N 38°41' W 009°25'0 0.0
2017-Sep-21 03:57N 38°41' W 009°25'0 0.0
2017-Sep-21 01:48N 38°41' W 009°25'0 0.0
2017-Sep-20 22:48N 38°41' W 009°25'0 0.0
2017-Sep-20 22:09N 38°41' W 009°25'0 0.0
2017-Sep-20 21:48N 38°41' W 009°25'0 0.0
2017-Sep-20 21:27N 38°41' W 009°25'0 0.0
2017-Sep-20 20:57N 38°41' W 009°25'0 0.0
2017-Sep-20 17:48N 38°41' W 009°25'0 0.0
2017-Sep-20 14:33N 38°41' W 009°25'0 0.0
2017-Sep-20 10:48N 38°41' W 009°25'0 0.0
2017-Sep-20 09:51N 38°41' W 009°25'0 0.0
2017-Sep-20 09:03N 38°41' W 009°25'0 0.0
2017-Sep-20 07:48N 38°41' W 009°25'0 0.0
2017-Sep-20 06:48N 38°41' W 009°25'0 0.0
2017-Sep-20 06:18N 38°41' W 009°25'0 0.0
2017-Sep-20 05:48N 38°41' W 009°25'0 0.0
2017-Sep-20 05:21N 38°41' W 009°25'0 0.0
2017-Sep-20 02:57N 38°41' W 009°25'0 0.0
2017-Sep-20 01:21N 38°41' W 009°25'0 0.0
2017-Sep-20 00:06N 38°41' W 009°25'0 0.0
2017-Sep-19 23:48N 38°41' W 009°25'0 0.0
2017-Sep-19 19:48N 38°41' W 009°25'0 0.0
2017-Sep-19 19:15N 38°41' W 009°25'0 0.0
2017-Sep-19 18:51N 38°41' W 009°25'0 0.0
2017-Sep-19 11:48N 38°41' W 009°25'0 0.0
2017-Sep-19 09:50N 38°41' W 009°25'0 0.2
2017-Sep-19 08:38N 38°42' W 009°25'0 1.0
2017-Sep-19 08:29N 38°42' W 009°25'3 5.1
2017-Sep-19 07:59N 38°41' W 009°28'3 6.8
2017-Sep-19 07:30N 38°42' W 009°32'3 6.6
2017-Sep-19 07:00N 38°45' W 009°34'3 6.8
2017-Sep-19 06:30N 38°48' W 009°36'3 6.7
2017-Sep-19 06:00N 38°51' W 009°37'3 6.9
2017-Sep-19 05:30N 38°55' W 009°37'4 7.0
2017-Sep-19 05:00N 38°58' W 009°38'3 6.7
2017-Sep-19 04:30N 39°02' W 009°39'3 6.5
2017-Sep-19 04:00N 39°05' W 009°39'3 6.5
2017-Sep-19 03:30N 39°08' W 009°39'3 6.4
2017-Sep-19 03:00N 39°11' W 009°39'3 6.3
2017-Sep-19 02:28N 39°15' W 009°39'3 6.0
2017-Sep-19 01:59N 39°18' W 009°39'  

Dump ship's entire track history